sensor_id;sensor_type;location;lat;lon;timestamp;pressure;altitude;pressure_sealevel;temperature;humidity
76632;BME280;65526;48.578;-4.520;2023-03-05T00:01:16;101615.28;;;2.75;72.64
76632;BME280;65526;48.578;-4.520;2023-03-05T00:03:44;101711.88;;;3.17;72.52
76632;BME280;65526;48.578;-4.520;2023-03-05T00:06:11;101842.78;;;4.13;72.83
76632;BME280;65526;48.578;-4.520;2023-03-05T00:08:37;102004.75;;;4.70;72.97
76632;BME280;65526;48.578;-4.520;2023-03-05T00:11:07;101388.81;;;1.37;72.61
76632;BME280;65526;48.578;-4.520;2023-03-05T00:13:35;101409.66;;;1.43;72.65
76632;BME280;65526;48.578;-4.520;2023-03-05T00:16:07;102278.25;;;6.81;73.22
76632;BME280;65526;48.578;-4.520;2023-03-05T00:18:34;101304.19;;;0.80;72.58
76632;BME280;65526;48.578;-4.520;2023-03-05T00:21:01;101857.63;;;4.22;73.03
76632;BME280;65526;48.578;-4.520;2023-03-05T00:23:28;102311.41;;;6.81;73.49
76632;BME280;65526;48.578;-4.520;2023-03-05T00:25:54;101708.25;;;3.37;73.03
76632;BME280;65526;48.578;-4.520;2023-03-05T00:28:21;101366.03;;;0.91;72.75
76632;BME280;65526;48.578;-4.520;2023-03-05T00:30:47;101954.63;;;4.73;73.26
76632;BME280;65526;48.578;-4.520;2023-03-05T00:33:13;101948.13;;;4.44;73.20
76632;BME280;65526;48.578;-4.520;2023-03-05T00:35:41;101315.69;;;0.97;72.53
76632;BME280;65526;48.578;-4.520;2023-03-05T00:38:09;101752.78;;;3.19;72.94
76632;BME280;65526;48.578;-4.520;2023-03-05T00:40:37;102359.50;;;6.74;73.43
76632;BME280;65526;48.578;-4.520;2023-03-05T00:43:04;101962.94;;;4.53;73.36
76632;BME280;65526;48.578;-4.520;2023-03-05T00:45:31;101373.22;;;1.43;73.10
76632;BME280;65526;48.578;-4.520;2023-03-05T00:47:58;101927.75;;;4.35;73.13
76632;BME280;65526;48.578;-4.520;2023-03-05T00:50:25;101403.34;;;1.58;73.04
76632;BME280;65526;48.578;-4.520;2023-03-05T00:52:52;101317.34;;;1.03;72.83
76632;BME280;65526;48.578;-4.520;2023-03-05T00:55:18;102280.53;;;6.68;73.08
76632;BME280;65526;48.578;-4.520;2023-03-05T00:57:45;102096.91;;;5.13;73.36
76632;BME280;65526;48.578;-4.520;2023-03-05T01:00:13;101329.41;;;1.12;72.77
76632;BME280;65526;48.578;-4.520;2023-03-05T01:02:40;101689.63;;;3.04;72.74
76632;BME280;65526;48.578;-4.520;2023-03-05T01:05:07;101852.63;;;4.34;73.28
76632;BME280;65526;48.578;-4.520;2023-03-05T01:07:33;101677.28;;;3.11;73.18
76632;BME280;65526;48.578;-4.520;2023-03-05T01:10:00;102230.47;;;6.36;73.39
76632;BME280;65526;48.578;-4.520;2023-03-05T01:12:26;102022.59;;;4.98;73.31
76632;BME280;65526;48.578;-4.520;2023-03-05T01:14:53;102224.72;;;6.71;73.45
76632;BME280;65526;48.578;-4.520;2023-03-05T01:17:19;101731.94;;;2.98;72.96
76632;BME280;65526;48.578;-4.520;2023-03-05T01:19:45;101624.56;;;3.04;73.44
76632;BME280;65526;48.578;-4.520;2023-03-05T01:22:12;101815.31;;;3.98;73.17
76632;BME280;65526;48.578;-4.520;2023-03-05T01:24:38;101630.06;;;3.09;73.75
76632;BME280;65526;48.578;-4.520;2023-03-05T01:27:04;101938.75;;;4.50;73.68
76632;BME280;65526;48.578;-4.520;2023-03-05T01:29:31;101926.53;;;4.76;73.49
76632;BME280;65526;48.578;-4.520;2023-03-05T01:31:57;102317.56;;;6.67;73.81
76632;BME280;65526;48.578;-4.520;2023-03-05T01:34:24;101628.13;;;3.15;73.77
76632;BME280;65526;48.578;-4.520;2023-03-05T01:36:50;101624.31;;;3.01;73.71
76632;BME280;65526;48.578;-4.520;2023-03-05T01:39:18;102200.41;;;6.68;73.88
76632;BME280;65526;48.578;-4.520;2023-03-05T01:41:44;101684.09;;;3.34;73.55
76632;BME280;65526;48.578;-4.520;2023-03-05T01:44:22;102026.66;;;5.06;73.69
76632;BME280;65526;48.578;-4.520;2023-03-05T01:46:49;101751.41;;;3.37;73.47
76632;BME280;65526;48.578;-4.520;2023-03-05T01:49:28;101901.00;;;4.56;73.77
76632;BME280;65526;48.578;-4.520;2023-03-05T01:52:06;101900.78;;;4.42;73.82
76632;BME280;65526;48.578;-4.520;2023-03-05T01:54:51;102020.66;;;5.53;73.80
76632;BME280;65526;48.578;-4.520;2023-03-05T01:57:42;101763.31;;;4.07;73.65
76632;BME280;65526;48.578;-4.520;2023-03-05T02:00:16;101896.06;;;4.48;73.62
76632;BME280;65526;48.578;-4.520;2023-03-05T02:02:47;101484.97;;;2.37;73.61
76632;BME280;65526;48.578;-4.520;2023-03-05T02:05:30;101245.91;;;0.95;73.32
76632;BME280;65526;48.578;-4.520;2023-03-05T02:08:19;102203.28;;;6.53;73.71
76632;BME280;65526;48.578;-4.520;2023-03-05T02:10:54;101755.06;;;4.07;73.75
76632;BME280;65526;48.578;-4.520;2023-03-05T02:13:28;101957.47;;;5.17;73.75
76632;BME280;65526;48.578;-4.520;2023-03-05T02:15:58;101668.63;;;3.58;73.82
76632;BME280;65526;48.578;-4.520;2023-03-05T02:18:25;101762.72;;;4.20;73.97
76632;BME280;65526;48.578;-4.520;2023-03-05T02:23:27;101800.69;;;4.13;73.86
76632;BME280;65526;48.578;-4.520;2023-03-05T02:25:55;102204.44;;;6.52;74.33
76632;BME280;65526;48.578;-4.520;2023-03-05T02:28:56;102135.06;;;6.54;74.18
76632;BME280;65526;48.578;-4.520;2023-03-05T02:31:24;101485.78;;;2.53;74.17
76632;BME280;65526;48.578;-4.520;2023-03-05T02:33:52;101541.41;;;2.94;74.82
76632;BME280;65526;48.578;-4.520;2023-03-05T02:36:20;101745.75;;;4.03;73.99
76632;BME280;65526;48.578;-4.520;2023-03-05T02:38:47;101777.41;;;3.90;74.26
76632;BME280;65526;48.578;-4.520;2023-03-05T02:41:14;101352.13;;;1.23;73.60
76632;BME280;65526;48.578;-4.520;2023-03-05T02:43:41;101920.53;;;5.13;74.43
76632;BME280;65526;48.578;-4.520;2023-03-05T02:46:08;101551.59;;;2.78;74.21
76632;BME280;65526;48.578;-4.520;2023-03-05T02:48:35;101548.56;;;2.79;73.74
76632;BME280;65526;48.578;-4.520;2023-03-05T02:51:02;101721.72;;;4.18;74.27
76632;BME280;65526;48.578;-4.520;2023-03-05T02:53:29;101729.22;;;4.08;74.11
76632;BME280;65526;48.578;-4.520;2023-03-05T02:55:55;101528.75;;;3.03;73.92
76632;BME280;65526;48.578;-4.520;2023-03-05T02:58:22;101950.47;;;4.81;74.20
76632;BME280;65526;48.578;-4.520;2023-03-05T03:00:49;101773.78;;;4.64;74.20
76632;BME280;65526;48.578;-4.520;2023-03-05T03:03:15;101678.81;;;3.58;74.10
76632;BME280;65526;48.578;-4.520;2023-03-05T03:05:41;101762.56;;;4.50;73.98
76632;BME280;65526;48.578;-4.520;2023-03-05T03:08:08;101750.56;;;4.26;74.26
76632;BME280;65526;48.578;-4.520;2023-03-05T03:10:35;102108.66;;;6.43;74.51
76632;BME280;65526;48.578;-4.520;2023-03-05T03:13:02;101683.25;;;4.13;74.26
76632;BME280;65526;48.578;-4.520;2023-03-05T03:15:29;101765.53;;;4.64;74.20
76632;BME280;65526;48.578;-4.520;2023-03-05T03:17:55;101294.06;;;1.51;73.71
76632;BME280;65526;48.578;-4.520;2023-03-05T03:20:22;101731.19;;;4.46;74.35
76632;BME280;65526;48.578;-4.520;2023-03-05T03:22:48;101957.03;;;5.39;74.38
76632;BME280;65526;48.578;-4.520;2023-03-05T03:25:17;101898.56;;;5.47;74.34
76632;BME280;65526;48.578;-4.520;2023-03-05T03:27:44;101747.31;;;4.19;74.22
76632;BME280;65526;48.578;-4.520;2023-03-05T03:30:11;101560.81;;;3.17;73.82
76632;BME280;65526;48.578;-4.520;2023-03-05T03:32:38;101703.38;;;4.04;74.18
76632;BME280;65526;48.578;-4.520;2023-03-05T03:35:05;102033.88;;;6.39;74.41
76632;BME280;65526;48.578;-4.520;2023-03-05T03:37:31;101108.31;;;0.69;73.90
76632;BME280;65526;48.578;-4.520;2023-03-05T03:39:58;101085.09;;;0.51;74.37
76632;BME280;65526;48.578;-4.520;2023-03-05T03:42:24;102031.38;;;6.38;74.68
76632;BME280;65526;48.578;-4.520;2023-03-05T03:44:51;101698.53;;;3.80;74.56
76632;BME280;65526;48.578;-4.520;2023-03-05T03:47:17;101634.13;;;3.91;74.34
76632;BME280;65526;48.578;-4.520;2023-03-05T03:49:44;102140.22;;;6.31;74.38
76632;BME280;65526;48.578;-4.520;2023-03-05T03:52:10;101446.75;;;2.71;74.40
76632;BME280;65526;48.578;-4.520;2023-03-05T03:54:36;101714.34;;;4.09;74.32
76632;BME280;65526;48.578;-4.520;2023-03-05T03:57:03;101705.69;;;4.35;74.59
76632;BME280;65526;48.578;-4.520;2023-03-05T03:59:29;101794.06;;;4.29;74.84
76632;BME280;65526;48.578;-4.520;2023-03-05T04:01:56;101369.78;;;2.37;74.32
76632;BME280;65526;48.578;-4.520;2023-03-05T04:04:22;101529.13;;;2.66;74.26
76632;BME280;65526;48.578;-4.520;2023-03-05T04:06:49;101709.53;;;4.34;74.31
76632;BME280;65526;48.578;-4.520;2023-03-05T04:09:15;101804.53;;;4.22;74.60
76632;BME280;65526;48.578;-4.520;2023-03-05T04:11:41;101202.38;;;1.18;74.33
76632;BME280;65526;48.578;-4.520;2023-03-05T04:14:08;101622.38;;;3.81;74.91
76632;BME280;65526;48.578;-4.520;2023-03-05T04:16:34;101818.41;;;5.05;74.71
76632;BME280;65526;48.578;-4.520;2023-03-05T04:19:01;101332.91;;;1.99;74.15
76632;BME280;65526;48.578;-4.520;2023-03-05T04:21:27;101828.31;;;4.52;74.50
76632;BME280;65526;48.578;-4.520;2023-03-05T04:23:54;101077.41;;;0.48;74.49
76632;BME280;65526;48.578;-4.520;2023-03-05T04:26:21;101558.81;;;3.38;74.52
76632;BME280;65526;48.578;-4.520;2023-03-05T04:28:47;101692.50;;;3.73;74.47
76632;BME280;65526;48.578;-4.520;2023-03-05T04:31:14;101673.94;;;4.04;74.76
76632;BME280;65526;48.578;-4.520;2023-03-05T04:33:40;101511.63;;;3.21;74.46
76632;BME280;65526;48.578;-4.520;2023-03-05T04:36:07;101641.66;;;3.66;74.88
76632;BME280;65526;48.578;-4.520;2023-03-05T04:38:34;101887.94;;;5.26;75.05
76632;BME280;65526;48.578;-4.520;2023-03-05T04:41:00;101540.50;;;3.13;74.70
76632;BME280;65526;48.578;-4.520;2023-03-05T04:43:27;101363.78;;;2.25;74.63
76632;BME280;65526;48.578;-4.520;2023-03-05T04:45:54;101644.63;;;3.79;74.65
76632;BME280;65526;48.578;-4.520;2023-03-05T04:48:21;101661.00;;;4.10;74.81
76632;BME280;65526;48.578;-4.520;2023-03-05T04:50:47;101971.50;;;5.65;74.95
76632;BME280;65526;48.578;-4.520;2023-03-05T04:53:13;102000.03;;;6.23;74.98
76632;BME280;65526;48.578;-4.520;2023-03-05T04:55:41;101253.31;;;1.14;74.41
76632;BME280;65526;48.578;-4.520;2023-03-05T04:58:08;101419.09;;;2.62;74.80
76632;BME280;65526;48.578;-4.520;2023-03-05T05:00:35;101021.69;;;0.24;74.44
76632;BME280;65526;48.578;-4.520;2023-03-05T05:03:01;102066.56;;;6.22;74.97
76632;BME280;65526;48.578;-4.520;2023-03-05T05:05:29;101663.50;;;4.01;74.44
76632;BME280;65526;48.578;-4.520;2023-03-05T05:07:56;101406.19;;;2.58;74.39
76632;BME280;65526;48.578;-4.520;2023-03-05T05:10:24;101240.66;;;1.59;74.28
76632;BME280;65526;48.578;-4.520;2023-03-05T05:12:50;101431.63;;;2.84;74.54
76632;BME280;65526;48.578;-4.520;2023-03-05T05:15:17;101650.13;;;3.79;74.61
76632;BME280;65526;48.578;-4.520;2023-03-05T05:17:43;102117.91;;;6.23;74.73
76632;BME280;65526;48.578;-4.520;2023-03-05T05:20:12;101648.28;;;3.70;74.48
76632;BME280;65526;48.578;-4.520;2023-03-05T05:22:39;101389.47;;;2.59;74.43
76632;BME280;65526;48.578;-4.520;2023-03-05T05:25:06;101419.66;;;2.59;74.47
76632;BME280;65526;48.578;-4.520;2023-03-05T05:27:33;101032.31;;;0.40;74.08
76632;BME280;65526;48.578;-4.520;2023-03-05T05:29:59;101748.06;;;4.34;73.97
76632;BME280;65526;48.578;-4.520;2023-03-05T05:32:26;101810.56;;;4.83;74.51
76632;BME280;65526;48.578;-4.520;2023-03-05T05:34:57;101065.94;;;0.56;74.00
76632;BME280;65526;48.578;-4.520;2023-03-05T05:37:24;101349.53;;;2.28;74.37
76632;BME280;65526;48.578;-4.520;2023-03-05T05:39:51;101168.47;;;0.99;74.31
76632;BME280;65526;48.578;-4.520;2023-03-05T05:42:22;101693.31;;;4.33;74.27
76632;BME280;65526;48.578;-4.520;2023-03-05T05:44:49;102016.97;;;6.12;74.47
76632;BME280;65526;48.578;-4.520;2023-03-05T05:47:16;101517.59;;;3.38;74.38
76632;BME280;65526;48.578;-4.520;2023-03-05T05:49:43;101636.75;;;4.12;74.23
76632;BME280;65526;48.578;-4.520;2023-03-05T05:52:09;101854.97;;;5.15;74.34
76632;BME280;65526;48.578;-4.520;2023-03-05T05:54:36;102048.66;;;6.19;74.24
76632;BME280;65526;48.578;-4.520;2023-03-05T05:57:03;101969.13;;;6.21;74.57
76632;BME280;65526;48.578;-4.520;2023-03-05T05:59:29;101616.72;;;4.06;74.28
76632;BME280;65526;48.578;-4.520;2023-03-05T06:01:56;101953.91;;;5.95;74.51
76632;BME280;65526;48.578;-4.520;2023-03-05T06:04:22;101202.91;;;1.36;73.71
76632;BME280;65526;48.578;-4.520;2023-03-05T06:06:48;101133.44;;;1.11;74.04
76632;BME280;65526;48.578;-4.520;2023-03-05T06:09:15;101676.09;;;4.17;74.14
76632;BME280;65526;48.578;-4.520;2023-03-05T06:11:42;101983.53;;;6.18;74.51
76632;BME280;65526;48.578;-4.520;2023-03-05T06:14:10;101428.75;;;2.45;74.15
76632;BME280;65526;48.578;-4.520;2023-03-05T06:16:37;101764.34;;;4.75;74.57
76632;BME280;65526;48.578;-4.520;2023-03-05T06:19:03;101171.75;;;1.06;74.18
76632;BME280;65526;48.578;-4.520;2023-03-05T06:21:30;100895.22;;;-0.37;73.92
76632;BME280;65526;48.578;-4.520;2023-03-05T06:23:57;101633.09;;;3.77;74.12
76632;BME280;65526;48.578;-4.520;2023-03-05T06:26:26;101383.69;;;2.61;74.11
76632;BME280;65526;48.578;-4.520;2023-03-05T06:28:53;101410.66;;;2.38;74.40
76632;BME280;65526;48.578;-4.520;2023-03-05T06:31:22;101409.66;;;2.84;73.81
76632;BME280;65526;48.578;-4.520;2023-03-05T06:33:51;101436.09;;;2.59;74.21
76632;BME280;65526;48.578;-4.520;2023-03-05T06:36:20;100937.81;;;-0.11;74.22
76632;BME280;65526;48.578;-4.520;2023-03-05T06:38:47;101360.81;;;2.21;74.14
76632;BME280;65526;48.578;-4.520;2023-03-05T06:41:16;101614.34;;;3.84;74.30
76632;BME280;65526;48.578;-4.520;2023-03-05T06:43:44;101658.91;;;3.86;74.24
76632;BME280;65526;48.578;-4.520;2023-03-05T06:46:17;101625.44;;;4.18;74.22
76632;BME280;65526;48.578;-4.520;2023-03-05T06:48:44;101137.56;;;0.89;73.67
76632;BME280;65526;48.578;-4.520;2023-03-05T06:51:15;101359.88;;;2.46;74.05
76632;BME280;65526;48.578;-4.520;2023-03-05T06:53:43;101530.28;;;3.29;74.11
76632;BME280;65526;48.578;-4.520;2023-03-05T06:56:10;101035.88;;;0.46;74.07
76632;BME280;65526;48.578;-4.520;2023-03-05T06:58:39;101428.78;;;2.34;74.10
76632;BME280;65526;48.578;-4.520;2023-03-05T07:01:06;101575.03;;;3.89;74.24
76632;BME280;65526;48.578;-4.520;2023-03-05T07:03:34;101418.06;;;2.48;74.42
76632;BME280;65526;48.578;-4.520;2023-03-05T07:06:06;101437.63;;;2.91;74.09
76632;BME280;65526;48.578;-4.520;2023-03-05T07:08:33;101316.16;;;1.95;74.19
76632;BME280;65526;48.578;-4.520;2023-03-05T07:11:00;101321.56;;;2.26;74.01
76632;BME280;65526;48.578;-4.520;2023-03-05T07:13:27;100912.13;;;-0.25;73.90
76632;BME280;65526;48.578;-4.520;2023-03-05T07:15:54;101284.16;;;1.76;73.67
76632;BME280;65526;48.578;-4.520;2023-03-05T07:18:21;101061.81;;;0.64;73.63
76632;BME280;65526;48.578;-4.520;2023-03-05T07:20:47;101510.69;;;2.76;74.22
76632;BME280;65526;48.578;-4.520;2023-03-05T07:23:14;101601.06;;;4.02;74.56
76632;BME280;65526;48.578;-4.520;2023-03-05T07:25:40;102056.72;;;6.11;74.74
76632;BME280;65526;48.578;-4.520;2023-03-05T07:28:07;101597.44;;;3.62;74.46
76632;BME280;65526;48.578;-4.520;2023-03-05T07:30:34;101635.34;;;3.70;74.43
76632;BME280;65526;48.578;-4.520;2023-03-05T07:33:00;101218.19;;;1.57;74.10
76632;BME280;65526;48.578;-4.520;2023-03-05T07:35:27;101578.06;;;3.33;74.23
76632;BME280;65526;48.578;-4.520;2023-03-05T07:37:54;101515.66;;;2.69;74.26
76632;BME280;65526;48.578;-4.520;2023-03-05T07:40:21;101656.31;;;4.10;74.53
76632;BME280;65526;48.578;-4.520;2023-03-05T07:42:47;101612.31;;;4.05;74.57
76632;BME280;65526;48.578;-4.520;2023-03-05T07:45:23;101896.63;;;5.48;74.94
76632;BME280;65526;48.578;-4.520;2023-03-05T07:47:49;101667.22;;;4.25;74.49
76632;BME280;65526;48.578;-4.520;2023-03-05T07:50:16;101684.13;;;4.04;74.38
76632;BME280;65526;48.578;-4.520;2023-03-05T07:52:42;101646.09;;;4.16;74.38
76632;BME280;65526;48.578;-4.520;2023-03-05T07:55:09;101329.22;;;2.34;74.31
76632;BME280;65526;48.578;-4.520;2023-03-05T07:57:35;101492.63;;;3.35;74.22
76632;BME280;65526;48.578;-4.520;2023-03-05T08:00:04;101351.91;;;2.50;74.11
76632;BME280;65526;48.578;-4.520;2023-03-05T08:02:37;101345.34;;;2.46;74.15
76632;BME280;65526;48.578;-4.520;2023-03-05T08:05:04;101719.03;;;4.08;74.67
76632;BME280;65526;48.578;-4.520;2023-03-05T08:07:30;101634.19;;;4.25;74.28
76632;BME280;65526;48.578;-4.520;2023-03-05T08:09:57;101383.19;;;2.54;74.18
76632;BME280;65526;48.578;-4.520;2023-03-05T08:12:23;101119.19;;;1.09;74.11
76632;BME280;65526;48.578;-4.520;2023-03-05T08:14:49;101667.94;;;3.92;74.17
76632;BME280;65526;48.578;-4.520;2023-03-05T08:17:16;101289.47;;;2.26;74.07
76632;BME280;65526;48.578;-4.520;2023-03-05T08:19:43;101053.34;;;0.65;73.88
76632;BME280;65526;48.578;-4.520;2023-03-05T08:22:09;101443.66;;;2.93;74.01
76632;BME280;65526;48.578;-4.520;2023-03-05T08:24:35;101993.41;;;6.24;74.38
76632;BME280;65526;48.578;-4.520;2023-03-05T08:27:02;101346.06;;;2.66;74.12
76632;BME280;65526;48.578;-4.520;2023-03-05T08:29:29;101538.81;;;3.77;74.47
76632;BME280;65526;48.578;-4.520;2023-03-05T08:31:55;101355.63;;;2.79;74.45
76632;BME280;65526;48.578;-4.520;2023-03-05T08:34:22;101332.59;;;2.75;74.17
76632;BME280;65526;48.578;-4.520;2023-03-05T08:36:48;101588.78;;;3.89;74.20
76632;BME280;65526;48.578;-4.520;2023-03-05T08:39:15;101130.00;;;1.50;74.01
76632;BME280;65526;48.578;-4.520;2023-03-05T08:41:42;101163.16;;;1.43;74.10
76632;BME280;65526;48.578;-4.520;2023-03-05T08:44:08;100901.44;;;0.09;73.94
76632;BME280;65526;48.578;-4.520;2023-03-05T08:46:35;101700.69;;;4.43;73.87
76632;BME280;65526;48.578;-4.520;2023-03-05T08:49:03;101324.38;;;2.75;73.99
76632;BME280;65526;48.578;-4.520;2023-03-05T08:51:30;101652.53;;;4.40;73.93
76632;BME280;65526;48.578;-4.520;2023-03-05T08:53:57;101424.72;;;3.40;73.88
76632;BME280;65526;48.578;-4.520;2023-03-05T08:56:24;101414.00;;;2.95;73.44
76632;BME280;65526;48.578;-4.520;2023-03-05T08:58:53;101316.38;;;2.78;73.79
76632;BME280;65526;48.578;-4.520;2023-03-05T09:01:19;101656.88;;;4.46;73.76
76632;BME280;65526;48.578;-4.520;2023-03-05T09:03:46;101274.22;;;2.59;73.77
76632;BME280;65526;48.578;-4.520;2023-03-05T09:06:12;101398.91;;;2.92;73.80
76632;BME280;65526;48.578;-4.520;2023-03-05T09:08:39;101253.97;;;2.50;73.67
76632;BME280;65526;48.578;-4.520;2023-03-05T09:11:07;101329.78;;;2.31;73.47
76632;BME280;65526;48.578;-4.520;2023-03-05T09:13:35;101902.38;;;6.43;73.59
76632;BME280;65526;48.578;-4.520;2023-03-05T09:16:05;101638.66;;;4.55;73.72
76632;BME280;65526;48.578;-4.520;2023-03-05T09:18:32;101213.72;;;2.41;73.08
76632;BME280;65526;48.578;-4.520;2023-03-05T09:21:12;100941.03;;;0.31;73.04
76632;BME280;65526;48.578;-4.520;2023-03-05T09:23:40;101943.16;;;6.51;73.57
76632;BME280;65526;48.578;-4.520;2023-03-05T09:26:09;101648.47;;;4.66;73.30
76632;BME280;65526;48.578;-4.520;2023-03-05T09:28:37;101424.41;;;3.81;73.30
76632;BME280;65526;48.578;-4.520;2023-03-05T09:31:05;101090.38;;;1.32;73.08
76632;BME280;65526;48.578;-4.520;2023-03-05T09:33:34;101647.56;;;4.76;73.31
76632;BME280;65526;48.578;-4.520;2023-03-05T09:36:01;101293.28;;;2.85;73.21
76632;BME280;65526;48.578;-4.520;2023-03-05T09:38:28;101598.44;;;4.88;73.42
76632;BME280;65526;48.578;-4.520;2023-03-05T09:41:12;101116.59;;;1.48;72.80
76632;BME280;65526;48.578;-4.520;2023-03-05T09:46:55;101864.50;;;6.67;73.36
76632;BME280;65526;48.578;-4.520;2023-03-05T09:49:54;101863.94;;;6.70;73.25
76632;BME280;65526;48.578;-4.520;2023-03-05T09:54:56;101490.41;;;4.44;73.16
76632;BME280;65526;48.578;-4.520;2023-03-05T09:57:38;101563.88;;;4.77;73.12
76632;BME280;65526;48.578;-4.520;2023-03-05T10:00:29;100942.38;;;1.13;72.63
76632;BME280;65526;48.578;-4.520;2023-03-05T10:03:00;101683.00;;;5.16;73.36
76632;BME280;65526;48.578;-4.520;2023-03-05T10:08:22;101681.00;;;5.51;73.12
76632;BME280;65526;48.578;-4.520;2023-03-05T10:10:52;101401.28;;;3.53;73.06
76632;BME280;65526;48.578;-4.520;2023-03-05T10:13:31;101449.44;;;3.79;72.70
76632;BME280;65526;48.578;-4.520;2023-03-05T10:16:14;101859.63;;;6.83;73.31
76632;BME280;65526;48.578;-4.520;2023-03-05T10:18:53;101145.63;;;2.09;72.60
76632;BME280;65526;48.578;-4.520;2023-03-05T10:21:34;101914.31;;;6.86;73.13
76632;BME280;65526;48.578;-4.520;2023-03-05T10:24:17;101340.63;;;3.05;72.65
76632;BME280;65526;48.578;-4.520;2023-03-05T10:37:45;101861.66;;;6.96;72.93
76632;BME280;65526;48.578;-4.520;2023-03-05T10:46:00;101600.56;;;4.96;72.61
76632;BME280;65526;48.578;-4.520;2023-03-05T10:48:58;101852.78;;;6.99;72.75
76632;BME280;65526;48.578;-4.520;2023-03-05T10:51:33;101272.50;;;3.41;72.53
76632;BME280;65526;48.578;-4.520;2023-03-05T10:54:08;101025.13;;;1.93;72.40
76632;BME280;65526;48.578;-4.520;2023-03-05T10:56:40;101519.31;;;4.94;72.34
76632;BME280;65526;48.578;-4.520;2023-03-05T10:59:06;101240.72;;;3.35;72.25
76632;BME280;65526;48.578;-4.520;2023-03-05T11:01:34;101918.13;;;7.09;72.20
76632;BME280;65526;48.578;-4.520;2023-03-05T11:04:03;101850.66;;;7.10;72.35
76632;BME280;65526;48.578;-4.520;2023-03-05T11:06:39;101601.19;;;5.17;72.18
76632;BME280;65526;48.578;-4.520;2023-03-05T11:09:25;101850.66;;;7.10;71.51
76632;BME280;65526;48.578;-4.520;2023-03-05T11:14:38;101086.13;;;2.43;71.93
76632;BME280;65526;48.578;-4.520;2023-03-05T11:23:21;101841.34;;;7.06;72.13
76632;BME280;65526;48.578;-4.520;2023-03-05T11:28:41;101261.88;;;3.64;71.73
76632;BME280;65526;48.578;-4.520;2023-03-05T11:31:23;101634.94;;;5.28;71.62
76632;BME280;65526;48.578;-4.520;2023-03-05T11:34:01;101091.78;;;2.57;71.59
76632;BME280;65526;48.578;-4.520;2023-03-05T11:36:43;101096.44;;;2.56;71.66
76632;BME280;65526;48.578;-4.520;2023-03-05T11:39:24;101107.75;;;2.55;71.88
76632;BME280;65526;48.578;-4.520;2023-03-05T11:44:27;101437.66;;;4.60;72.26
76632;BME280;65526;48.578;-4.520;2023-03-05T11:49:40;101286.25;;;3.94;72.05
76632;BME280;65526;48.578;-4.520;2023-03-05T11:52:21;101207.28;;;3.52;71.42
76632;BME280;65526;48.578;-4.520;2023-03-05T11:54:55;101792.03;;;7.13;72.07
76632;BME280;65526;48.578;-4.520;2023-03-05T11:57:24;101918.03;;;7.14;71.93
76632;BME280;65526;48.578;-4.520;2023-03-05T11:59:54;101256.94;;;3.61;72.06
76632;BME280;65526;48.578;-4.520;2023-03-05T12:02:24;101819.06;;;7.16;71.80
76632;BME280;65526;48.578;-4.520;2023-03-05T12:04:51;100816.66;;;1.22;71.27
76632;BME280;65526;48.578;-4.520;2023-03-05T12:07:34;101401.06;;;4.60;71.84
76632;BME280;65526;48.578;-4.520;2023-03-05T12:10:03;101096.88;;;2.97;71.62
76632;BME280;65526;48.578;-4.520;2023-03-05T12:23:00;101234.41;;;3.58;71.70
76632;BME280;65526;48.578;-4.520;2023-03-05T12:25:32;100984.53;;;1.95;71.35
76632;BME280;65526;48.578;-4.520;2023-03-05T12:28:00;101297.38;;;3.84;71.45
76632;BME280;65526;48.578;-4.520;2023-03-05T12:33:00;101047.50;;;2.06;71.54
76632;BME280;65526;48.578;-4.520;2023-03-05T12:35:39;101141.13;;;3.48;71.12
76632;BME280;65526;48.578;-4.520;2023-03-05T12:38:16;100802.31;;;1.35;70.38
76632;BME280;65526;48.578;-4.520;2023-03-05T12:40:43;101327.84;;;4.59;71.42
76632;BME280;65526;48.578;-4.520;2023-03-05T12:43:29;101394.16;;;5.05;71.39
76632;BME280;65526;48.578;-4.520;2023-03-05T12:46:21;101720.22;;;7.08;71.44
76632;BME280;65526;48.578;-4.520;2023-03-05T12:48:48;100796.28;;;1.38;71.23
76632;BME280;65526;48.578;-4.520;2023-03-05T12:51:32;101531.97;;;5.80;71.47
76632;BME280;65526;48.578;-4.520;2023-03-05T12:54:23;101709.69;;;7.10;71.78
76632;BME280;65526;48.578;-4.520;2023-03-05T12:56:54;101536.72;;;5.37;72.03
76632;BME280;65526;48.578;-4.520;2023-03-05T12:59:27;101730.59;;;7.16;71.89
76632;BME280;65526;48.578;-4.520;2023-03-05T13:01:58;101233.59;;;3.58;71.36
76632;BME280;65526;48.578;-4.520;2023-03-05T13:04:28;101381.69;;;5.26;71.50
76632;BME280;65526;48.578;-4.520;2023-03-05T13:07:21;100761.22;;;1.40;71.61
76632;BME280;65526;48.578;-4.520;2023-03-05T13:09:55;101660.38;;;6.52;71.37
76632;BME280;65526;48.578;-4.520;2023-03-05T13:12:24;101527.44;;;5.51;70.95
76632;BME280;65526;48.578;-4.520;2023-03-05T13:15:06;101120.53;;;3.70;71.31
76632;BME280;65526;48.578;-4.520;2023-03-05T13:20:24;100710.44;;;1.24;71.24
76632;BME280;65526;48.578;-4.520;2023-03-05T13:23:02;101232.31;;;3.98;71.43
76632;BME280;65526;48.578;-4.520;2023-03-05T13:25:29;101094.47;;;3.43;71.09
76632;BME280;65526;48.578;-4.520;2023-03-05T13:28:03;101320.28;;;4.88;70.59
76632;BME280;65526;48.578;-4.520;2023-03-05T13:30:30;101373.31;;;5.17;70.98
76632;BME280;65526;48.578;-4.520;2023-03-05T13:33:01;101559.47;;;6.41;71.35
76632;BME280;65526;48.578;-4.520;2023-03-05T13:35:30;100768.25;;;1.75;71.24
76632;BME280;65526;48.578;-4.520;2023-03-05T13:37:57;101701.84;;;7.17;71.60
76632;BME280;65526;48.578;-4.520;2023-03-05T13:42:52;100669.44;;;1.19;70.94
76632;BME280;65526;48.578;-4.520;2023-03-05T13:45:20;101480.47;;;6.13;71.56
76632;BME280;65526;48.578;-4.520;2023-03-05T13:48:00;101092.75;;;3.90;71.33
76632;BME280;65526;48.578;-4.520;2023-03-05T13:50:30;101327.13;;;5.09;71.56
76632;BME280;65526;48.578;-4.520;2023-03-05T13:55:47;100997.25;;;3.39;71.65
76632;BME280;65526;48.578;-4.520;2023-03-05T14:01:12;101600.06;;;7.19;71.41
76632;BME280;65526;48.578;-4.520;2023-03-05T14:03:39;101395.06;;;5.70;71.17
76632;BME280;65526;48.578;-4.520;2023-03-05T14:06:10;101001.81;;;3.49;71.15
76632;BME280;65526;48.578;-4.520;2023-03-05T14:08:38;101320.56;;;4.68;71.17
76632;BME280;65526;48.578;-4.520;2023-03-05T14:11:13;101034.69;;;3.54;71.36